Time;durP1;ratioP1;P1;durP2;ratioP2;P2;SDS_P1;SDS_P2;PMS_P1;PMS_P2;Temp;Humidity;BMP_temperature;BMP_pressure;BME280_temperature;BME280_humidity;BME280_pressure;Samples;Min_cycle;Max_cycle;Signal;HPM_P1;HPM_P2
2021/11/18 00:00:43;;;;;;;38.90;26.20;;;;;;;4.75;100.00;99583.16;102197;1314;74048;-69
2021/11/18 00:03:12;;;;;;;35.90;23.70;;;;;;;4.75;100.00;99586.16;102257;1310;61270;-69
2021/11/18 00:05:39;;;;;;;35.70;25.10;;;;;;;4.75;100.00;99584.23;101939;1310;61504;-69
2021/11/18 00:08:06;;;;;;;36.50;24.70;;;;;;;4.75;100.00;99585.65;102208;1310;75958;-69
2021/11/18 00:10:46;;;;;;;37.50;26.40;;;;;;;4.74;100.00;99587.61;102345;1310;69649;-69
2021/11/18 00:13:16;;;;;;;38.10;27.40;;;;;;;4.73;100.00;99586.04;102190;1317;72771;-69
2021/11/18 00:15:44;;;;;;;37.90;25.50;;;;;;;4.74;100.00;99588.32;102217;1310;61486;-70
2021/11/18 00:18:24;;;;;;;36.30;25.70;;;;;;;4.73;100.00;99581.83;102241;1310;61297;-69
2021/11/18 00:21:04;;;;;;;35.20;24.10;;;;;;;4.74;100.00;99581.11;101877;1316;75492;-69
2021/11/18 00:23:34;;;;;;;37.80;23.30;;;;;;;4.74;100.00;99583.39;102256;1316;69971;-69
2021/11/18 00:26:01;;;;;;;;;;;;;;;4.73;100.00;99586.92;102282;1310;73439;-69
2021/11/18 00:28:28;;;;;;;39.10;25.60;;;;;;;4.73;100.00;99586.24;102279;1316;61456;-70
2021/11/18 00:30:55;;;;;;;41.10;27.10;;;;;;;4.73;100.00;99593.81;102337;1317;61482;-69
2021/11/18 00:33:22;;;;;;;36.30;22.90;;;;;;;4.73;100.00;99594.85;102407;1314;76487;-69
2021/11/18 00:35:50;;;;;;;35.90;24.00;;;;;;;4.74;100.00;99594.12;102324;1314;70090;-68
2021/11/18 00:38:17;;;;;;;39.90;25.70;;;;;;;4.75;100.00;99594.80;102334;1310;74587;-69
2021/11/18 00:40:46;;;;;;;35.70;23.80;;;;;;;4.75;100.00;99590.23;102355;1309;61301;-68
2021/11/18 00:43:15;;;;;;;35.40;24.10;;;;;;;4.76;100.00;99592.13;102285;1310;61420;-69
2021/11/18 00:45:43;;;;;;;35.60;25.20;;;;;;;4.75;100.00;99595.16;102440;1310;76589;-69
2021/11/18 00:48:11;;;;;;;36.40;25.70;;;;;;;4.75;100.00;99595.86;102259;1313;69700;-68
2021/11/18 00:50:43;;;;;;;33.20;23.20;;;;;;;4.75;100.00;99598.48;102196;1310;73564;-68
2021/11/18 00:53:10;;;;;;;36.00;24.30;;;;;;;4.76;100.00;99604.27;102238;1310;61457;-69
2021/11/18 00:55:37;;;;;;;34.30;23.00;;;;;;;4.78;100.00;99601.92;102283;1313;61221;-68
2021/11/18 00:58:05;;;;;;;36.60;24.40;;;;;;;4.78;100.00;99599.26;102268;1310;75545;-68
2021/11/18 01:00:36;;;;;;;32.20;22.90;;;;;;;4.78;100.00;99600.48;102369;1317;69536;-69
2021/11/18 01:03:03;;;;;;;32.50;22.80;;;;;;;4.79;100.00;99600.83;102352;1310;74315;-70
2021/11/18 01:05:37;;;;;;;33.40;23.80;;;;;;;4.79;100.00;99607.50;102229;1316;61297;-68
2021/11/18 01:08:06;;;;;;;33.80;22.80;;;;;;;4.79;100.00;99610.51;102273;1310;61256;-68
2021/11/18 01:10:39;;;;;;;34.10;25.00;;;;;;;4.80;100.00;99605.91;102264;1310;76612;-69
2021/11/18 01:13:07;;;;;;;34.30;23.40;;;;;;;4.81;100.00;99607.24;102273;1310;69657;-68
2021/11/18 01:15:36;;;;;;;32.20;22.80;;;;;;;4.82;100.00;99598.60;102307;1316;74750;-71
2021/11/18 01:18:04;;;;;;;31.60;23.60;;;;;;;4.83;100.00;99594.17;102255;1311;61361;-69
2021/11/18 01:20:33;;;;;;;38.50;24.80;;;;;;;4.84;100.00;99594.85;101915;1316;61395;-69
2021/11/18 01:23:02;;;;;;;34.40;24.20;;;;;;;4.84;100.00;99588.14;102359;1311;74119;-71
2021/11/18 01:25:30;;;;;;;33.90;25.30;;;;;;;4.85;100.00;99593.77;102365;1310;68542;-69
2021/11/18 01:27:59;;;;;;;37.30;25.20;;;;;;;4.84;100.00;99601.36;102289;1311;74819;-71
2021/11/18 01:30:30;;;;;;;34.70;23.80;;;;;;;4.84;100.00;99599.05;102374;1310;61361;-70
2021/11/18 01:32:58;;;;;;;35.50;24.10;;;;;;;4.86;100.00;99604.66;102336;1310;62145;-69
2021/11/18 01:35:25;;;;;;;33.90;23.00;;;;;;;4.86;100.00;99608.70;102085;1314;75916;-69
2021/11/18 01:37:52;;;;;;;30.80;23.30;;;;;;;4.85;100.00;99605.19;102379;1313;70481;-69
2021/11/18 01:40:23;;;;;;;31.10;21.80;;;;;;;4.86;100.00;99607.64;102329;1310;73504;-67
2021/11/18 01:42:52;;;;;;;30.60;22.60;;;;;;;4.87;100.00;99607.25;102276;1310;61284;-69
2021/11/18 01:45:22;;;;;;;31.00;21.40;;;;;;;4.87;100.00;99606.37;102243;1310;62460;-69
2021/11/18 01:47:49;;;;;;;29.60;20.50;;;;;;;4.88;100.00;99607.93;102288;1314;75443;-69
2021/11/18 01:50:19;;;;;;;30.70;22.00;;;;;;;4.88;100.00;99607.95;102313;1310;69869;-69
2021/11/18 01:52:47;;;;;;;29.20;21.20;;;;;;;4.88;100.00;99615.50;102288;1310;73399;-71
2021/11/18 01:55:16;;;;;;;28.30;20.50;;;;;;;4.88;100.00;99618.13;102227;1311;61329;-69
2021/11/18 01:57:43;;;;;;;29.70;22.00;;;;;;;4.90;100.00;99614.91;102312;1310;62776;-69
2021/11/18 02:00:20;;;;;;;26.50;20.70;;;;;;;4.90;100.00;99616.12;101876;1314;76274;-68
2021/11/18 02:02:47;;;;;;;26.70;19.80;;;;;;;4.90;100.00;99614.36;102265;1311;70596;-69
2021/11/18 02:05:22;;;;;;;26.50;20.30;;;;;;;4.90;100.00;99614.71;102259;1313;73511;-69
2021/11/18 02:07:49;;;;;;;28.00;20.80;;;;;;;4.89;100.00;99605.77;101945;1310;61344;-68
2021/11/18 02:10:21;;;;;;;27.10;20.40;;;;;;;4.89;100.00;99608.94;102252;1310;62185;-69
2021/11/18 02:12:48;;;;;;;27.80;20.20;;;;;;;4.88;100.00;99615.14;102257;1310;76205;-69
2021/11/18 02:15:29;;;;;;;28.20;22.40;;;;;;;4.87;100.00;99619.59;102268;1310;70512;-70
2021/11/18 02:17:58;;;;;;;27.00;20.90;;;;;;;4.87;100.00;99611.66;102281;1313;73575;-69
2021/11/18 02:20:29;;;;;;;28.00;21.50;;;;;;;4.86;100.00;99607.64;102185;1310;61311;-69
2021/11/18 02:22:56;;;;;;;28.50;20.20;;;;;;;4.85;100.00;99609.77;102263;1310;62231;-68
2021/11/18 02:25:26;;;;;;;23.20;18.20;;;;;;;4.85;100.00;99615.42;102229;1310;76484;-69
2021/11/18 02:27:53;;;;;;;26.90;19.20;;;;;;;4.85;100.00;99611.36;102252;1310;70438;-69
2021/11/18 02:30:22;;;;;;;26.50;18.70;;;;;;;4.86;100.00;99617.86;102223;1310;73797;-69
2021/11/18 02:32:49;;;;;;;22.30;17.90;;;;;;;4.87;100.00;99626.27;102314;1310;61328;-69
2021/11/18 02:35:21;;;;;;;23.50;19.00;;;;;;;4.87;100.00;99632.60;102269;1310;62042;-69
2021/11/18 02:37:50;;;;;;;25.70;18.90;;;;;;;4.88;100.00;99627.11;102319;1310;76760;-69
2021/11/18 02:40:18;;;;;;;25.40;20.10;;;;;;;4.89;100.00;99629.91;102371;1310;68549;-69
2021/11/18 02:42:45;;;;;;;28.30;19.90;;;;;;;4.89;100.00;99634.30;101973;1314;73585;-68
2021/11/18 02:45:16;;;;;;;23.30;18.70;;;;;;;4.89;100.00;99637.82;101993;1316;61319;-69
2021/11/18 02:47:43;;;;;;;26.00;19.70;;;;;;;4.89;100.00;99643.25;102303;1316;61244;-68
2021/11/18 02:50:13;;;;;;;22.80;18.40;;;;;;;4.89;100.00;99643.45;102256;1310;75523;-68
2021/11/18 02:52:40;;;;;;;22.00;18.10;;;;;;;4.88;100.00;99643.84;102328;1317;70122;-69
2021/11/18 02:55:11;;;;;;;21.50;17.10;;;;;;;4.88;100.00;99644.20;102365;1310;73494;-69
2021/11/18 02:57:38;;;;;;;24.00;18.40;;;;;;;4.89;100.00;99652.62;102327;1310;61405;-69
2021/11/18 03:00:37;;;;;;;24.10;18.50;;;;;;;4.89;100.00;99651.38;102345;1310;62200;-70
2021/11/18 03:03:04;;;;;;;25.30;18.90;;;;;;;4.88;100.00;99650.88;102407;1311;76412;-69
2021/11/18 03:05:31;;;;;;;21.80;19.00;;;;;;;4.88;100.00;99651.75;102364;1310;70095;-69
2021/11/18 03:07:58;;;;;;;25.60;18.00;;;;;;;4.89;100.00;99652.62;102072;1314;75171;-69
2021/11/18 03:10:28;;;;;;;21.90;17.90;;;;;;;4.88;100.00;99651.59;102367;1318;61332;-70
2021/11/18 03:12:55;;;;;;;23.00;18.10;;;;;;;4.88;100.00;99659.53;102459;1310;61899;-70
2021/11/18 03:15:24;;;;;;;23.00;18.20;;;;;;;4.88;100.00;99660.04;102407;1310;76481;-69
2021/11/18 03:17:50;;;;;;;24.50;18.90;;;;;;;4.88;100.00;99660.91;102462;1313;70936;-70
2021/11/18 03:20:20;;;;;;;22.80;20.00;;;;;;;4.89;100.00;99661.08;102423;1310;74479;-69
2021/11/18 03:22:48;;;;;;;28.10;20.50;;;;;;;4.88;100.00;99661.79;102449;1310;61515;-68
2021/11/18 03:25:19;;;;;;;21.50;18.20;;;;;;;4.89;100.00;99663.15;102307;1310;62413;-71
2021/11/18 03:27:45;;;;;;;22.00;18.00;;;;;;;4.89;100.00;99668.45;102468;1313;75929;-70
2021/11/18 03:30:22;;;;;;;22.70;19.00;;;;;;;4.89;100.00;99668.27;102031;1310;70908;-68
2021/11/18 03:32:50;;;;;;;21.30;18.00;;;;;;;4.89;100.00;99667.95;102235;1310;73594;-69
2021/11/18 03:35:16;;;;;;;25.00;18.60;;;;;;;4.89;100.00;99667.20;102238;1311;61342;-69
2021/11/18 03:37:43;;;;;;;23.40;16.90;;;;;;;4.90;100.00;99662.96;101971;1310;61544;-69
2021/11/18 03:40:11;;;;;;;23.30;17.10;;;;;;;4.89;100.00;99657.72;102246;1310;76616;-68
2021/11/18 03:42:39;;;;;;;20.30;16.70;;;;;;;4.87;100.00;99659.72;102388;1310;70478;-68
2021/11/18 03:45:08;;;;;;;24.70;19.70;;;;;;;4.86;100.00;99667.49;102327;1310;73903;-68
2021/11/18 03:47:35;;;;;;;23.30;19.00;;;;;;;4.85;100.00;99674.05;102266;1316;61432;-68
2021/11/18 03:50:02;;;;;;;22.50;18.70;;;;;;;4.84;100.00;99676.53;102340;1310;62496;-69
2021/11/18 03:52:29;;;;;;;23.90;19.20;;;;;;;4.84;100.00;99673.54;102237;1310;76420;-68
2021/11/18 03:54:55;;;;;;;23.30;18.80;;;;;;;4.84;100.00;99673.54;102247;1311;69579;-69
2021/11/18 03:57:22;;;;;;;28.30;23.60;;;;;;;4.83;100.00;99675.70;102247;1310;74483;-69
2021/11/18 03:59:49;;;;;;;22.70;19.80;;;;;;;4.82;100.00;99682.05;102263;1311;61400;-69
2021/11/18 04:02:17;;;;;;;25.50;21.20;;;;;;;4.81;100.00;99682.27;102257;1310;62167;-69
2021/11/18 04:04:50;;;;;;;26.10;21.00;;;;;;;4.80;100.00;99690.56;102166;1311;75155;-71
2021/11/18 04:07:17;;;;;;;24.70;20.30;;;;;;;4.79;100.00;99686.20;102443;1310;70021;-68
2021/11/18 04:09:45;;;;;;;25.40;19.50;;;;;;;4.78;100.00;99682.36;102450;1317;74031;-68
2021/11/18 04:12:14;;;;;;;28.10;20.60;;;;;;;4.76;100.00;99681.89;102010;1316;61323;-70
2021/11/18 04:14:41;;;;;;;28.90;22.20;;;;;;;4.74;100.00;99680.01;102274;1316;61247;-68
2021/11/18 04:17:09;;;;;;;28.00;22.80;;;;;;;4.72;100.00;99681.14;102224;1311;76559;-69
2021/11/18 04:19:36;;;;;;;27.70;22.30;;;;;;;4.70;100.00;99687.55;102228;1317;70837;-69
2021/11/18 04:22:05;;;;;;;28.40;21.10;;;;;;;4.69;100.00;99689.70;102247;1310;72518;-70
2021/11/18 04:24:33;;;;;;;27.80;22.00;;;;;;;4.68;100.00;99688.49;102256;1310;61393;-70
2021/11/18 04:27:01;;;;;;;29.40;23.00;;;;;;;4.67;100.00;99692.40;102499;1310;61260;-68
2021/11/18 04:29:28;;;;;;;27.60;22.50;;;;;;;4.67;100.00;99693.12;102252;1316;75475;-69
2021/11/18 04:32:05;;;;;;;28.70;22.30;;;;;;;4.66;100.00;99690.48;102027;1316;69335;-70
2021/11/18 04:34:33;;;;;;;31.80;25.50;;;;;;;4.66;100.00;99694.55;102249;1313;73335;-69
2021/11/18 04:37:00;;;;;;;29.90;25.40;;;;;;;4.65;100.00;99696.67;102327;1312;61664;-69
2021/11/18 04:39:27;;;;;;;31.50;24.30;;;;;;;4.65;100.00;99690.02;102265;1316;61940;-68
2021/11/18 04:41:53;;;;;;;33.30;24.60;;;;;;;4.66;100.00;99688.39;101736;1313;206700;-68
2021/11/18 04:44:21;;;;;;;31.40;24.40;;;;;;;4.65;100.00;99688.76;102259;1319;70392;-70
2021/11/18 04:46:49;;;;;;;30.70;24.70;;;;;;;4.65;100.00;99691.25;102294;1313;73494;-69
2021/11/18 04:49:16;;;;;;;32.40;25.10;;;;;;;4.63;100.00;99695.69;102229;1314;61309;-69
2021/11/18 04:51:43;;;;;;;32.20;25.00;;;;;;;4.64;100.00;99701.47;102215;1317;61332;-69
2021/11/18 04:54:09;;;;;;;33.80;25.50;;;;;;;4.64;100.00;99710.27;101850;1316;74526;-69
2021/11/18 04:56:38;;;;;;;34.10;24.80;;;;;;;4.63;100.00;99712.73;102234;1313;70474;-69
2021/11/18 04:59:06;;;;;;;34.60;26.80;;;;;;;4.65;100.00;99718.70;102240;1317;73339;-70
2021/11/18 05:01:34;;;;;;;32.70;25.10;;;;;;;4.65;100.00;99719.05;102247;1312;61244;-69
2021/11/18 05:04:06;;;;;;;34.30;25.80;;;;;;;4.65;100.00;99719.90;102286;1316;61929;-69
2021/11/18 05:06:33;;;;;;;36.60;26.50;;;;;;;4.66;100.00;99722.87;102236;1316;76460;-69
2021/11/18 05:09:00;;;;;;;31.60;24.50;;;;;;;4.66;100.00;99726.23;102234;1311;69887;-69
2021/11/18 05:11:26;;;;;;;28.50;23.00;;;;;;;4.66;100.00;99730.10;102081;1316;73750;-68
2021/11/18 05:13:53;;;;;;;36.70;27.40;;;;;;;4.66;100.00;99733.09;102200;1313;61308;-69
2021/11/18 05:16:20;;;;;;;37.00;27.40;;;;;;;4.67;100.00;99733.27;102202;1316;61245;-69
2021/11/18 05:18:47;;;;;;;35.40;27.20;;;;;;;4.67;100.00;99733.41;102203;1317;76658;-68
2021/11/18 05:21:19;;;;;;;37.00;28.40;;;;;;;4.68;100.00;99732.66;102366;1313;67818;-68
2021/11/18 05:23:47;;;;;;;35.60;28.00;;;;;;;4.68;100.00;99730.39;102284;1317;72605;-68
2021/11/18 05:26:16;;;;;;;38.10;28.70;;;;;;;4.68;100.00;99735.67;102211;1316;61422;-69
2021/11/18 05:28:44;;;;;;;35.40;27.80;;;;;;;4.68;100.00;99738.84;102281;1317;61302;-69
2021/11/18 05:31:12;;;;;;;38.80;28.40;;;;;;;4.67;100.00;99738.86;102304;1313;75525;-69
2021/11/18 05:33:40;;;;;;;38.20;27.80;;;;;;;4.66;100.00;99739.60;102309;1314;69913;-69
2021/11/18 05:36:07;;;;;;;40.30;29.40;;;;;;;4.65;100.00;99739.09;102359;1310;74722;-69
2021/11/18 05:38:34;;;;;;;45.80;30.60;;;;;;;4.65;100.00;99742.80;102317;1310;61358;-69
2021/11/18 05:41:00;;;;;;;39.10;30.20;;;;;;;4.65;100.00;99746.68;102304;1310;62134;-69
2021/11/18 05:43:30;;;;;;;42.50;32.00;;;;;;;4.65;100.00;99742.27;102311;1313;77123;-70
2021/11/18 05:45:57;;;;;;;43.30;31.90;;;;;;;4.65;100.00;99745.45;102387;1315;70552;-69
2021/11/18 05:48:25;;;;;;;44.60;33.00;;;;;;;4.64;100.00;99747.23;102346;1310;73438;-70
2021/11/18 05:50:56;;;;;;;46.20;32.40;;;;;;;4.63;100.00;99753.23;102412;1310;61320;-70
2021/11/18 05:53:29;;;;;;;43.30;31.90;;;;;;;4.63;100.00;99749.02;102231;1314;61331;-70
2021/11/18 05:55:58;;;;;;;39.90;30.00;;;;;;;4.63;100.00;99747.95;102430;1311;75968;-69
2021/11/18 05:58:26;;;;;;;44.10;33.10;;;;;;;4.63;100.00;99747.77;102394;1317;68763;-69
2021/11/18 06:00:53;;;;;;;43.00;29.80;;;;;;;4.64;100.00;99753.91;102464;1310;74684;-69
2021/11/18 06:03:19;;;;;;;45.70;31.70;;;;;;;4.65;100.00;99754.79;102392;1310;61329;-70
2021/11/18 06:05:46;;;;;;;43.60;31.60;;;;;;;4.64;100.00;99760.61;102458;1310;61205;-69
2021/11/18 06:08:13;;;;;;;41.30;30.20;;;;;;;4.64;100.00;99763.77;102283;1313;76553;-69
2021/11/18 06:10:40;;;;;;;46.10;33.10;;;;;;;4.65;100.00;99766.74;101867;1316;70539;-69
2021/11/18 06:13:07;;;;;;;43.30;31.70;;;;;;;4.65;100.00;99764.61;101848;1316;73582;-69
2021/11/18 06:15:34;;;;;;;47.70;34.10;;;;;;;4.66;100.00;99771.10;102323;1310;61320;-68
2021/11/18 06:18:01;;;;;;;47.80;36.10;;;;;;;4.68;100.00;99770.17;102334;1313;62140;-69
2021/11/18 06:20:29;;;;;;;48.50;34.30;;;;;;;4.69;100.00;99774.54;102309;1314;75990;-69
2021/11/18 06:22:56;;;;;;;45.80;32.20;;;;;;;4.69;100.00;99772.76;102384;1310;69397;-70
2021/11/18 06:25:27;;;;;;;45.40;33.20;;;;;;;4.72;100.00;99767.77;102298;1317;74591;-69
2021/11/18 06:27:54;;;;;;;40.20;30.70;;;;;;;4.74;100.00;99768.22;102319;1313;61399;-69
2021/11/18 06:30:28;;;;;;;38.60;30.50;;;;;;;4.77;100.00;99772.01;102291;1314;61569;-69
2021/11/18 06:32:56;;;;;;;39.60;30.60;;;;;;;4.80;100.00;99775.60;102328;1314;76526;-69
2021/11/18 06:35:24;;;;;;;41.60;31.40;;;;;;;4.84;100.00;99776.02;102346;1314;69843;-70
2021/11/18 06:37:51;;;;;;;43.00;32.70;;;;;;;4.87;100.00;99782.26;101932;1316;73517;-69
2021/11/18 06:40:19;;;;;;;38.80;29.90;;;;;;;4.90;100.00;99782.70;102315;1313;61305;-69
2021/11/18 06:42:47;;;;;;;43.30;31.70;;;;;;;4.95;100.00;99785.20;102344;1310;62112;-68
2021/11/18 06:45:19;;;;;;;42.10;31.30;;;;;;;4.99;100.00;99783.65;102065;1319;74926;-69
2021/11/18 06:47:46;;;;;;;42.40;33.30;;;;;;;5.05;100.00;99784.16;102446;1316;68727;-69
2021/11/18 06:50:13;;;;;;;41.70;30.30;;;;;;;5.13;100.00;99781.98;101979;1318;73755;-69
2021/11/18 06:52:40;;;;;;;38.40;29.00;;;;;;;5.22;100.00;99786.61;102306;1311;61317;-69
2021/11/18 06:55:09;;;;;;;41.10;30.20;;;;;;;5.31;100.00;99789.13;102343;1310;61657;-68
2021/11/18 06:57:36;;;;;;;39.80;30.00;;;;;;;5.38;100.00;99783.96;101889;1318;75648;-68
2021/11/18 07:00:08;;;;;;;37.60;28.80;;;;;;;5.47;100.00;99781.72;102306;1311;68941;-69
2021/11/18 07:02:35;;;;;;;38.30;28.30;;;;;;;5.55;100.00;99781.64;102486;1310;73294;-70
2021/11/18 07:05:02;;;;;;;35.40;27.90;;;;;;;5.62;100.00;99781.93;102337;1310;61315;-69
2021/11/18 07:07:29;;;;;;;35.60;26.80;;;;;;;5.66;100.00;99783.20;102420;1313;62185;-68
2021/11/18 07:09:57;;;;;;;34.10;25.30;;;;;;;5.72;100.00;99783.70;102321;1310;75190;-69
2021/11/18 07:12:24;;;;;;;36.00;26.80;;;;;;;5.82;100.00;99779.30;102361;1313;69728;-69
2021/11/18 07:14:52;;;;;;;36.70;26.90;;;;;;;5.93;100.00;99777.17;101887;1315;71994;-69
2021/11/18 07:17:19;;;;;;;32.90;23.80;;;;;;;6.08;100.00;99775.77;102318;1310;61316;-69
2021/11/18 07:19:47;;;;;;;36.00;25.80;;;;;;;6.20;100.00;99773.55;102308;1317;61327;-69
2021/11/18 07:22:15;;;;;;;35.10;25.40;;;;;;;6.32;100.00;99770.65;102351;1310;75726;-69
2021/11/18 07:24:42;;;;;;;33.40;25.00;;;;;;;6.44;100.00;99773.73;102307;1316;68735;-69
2021/11/18 07:27:09;;;;;;;30.60;25.20;;;;;;;6.54;100.00;99777.96;102296;1310;74262;-71
2021/11/18 07:29:37;;;;;;;27.90;23.80;;;;;;;6.61;100.00;99778.60;102316;1310;61287;-70
2021/11/18 07:32:05;;;;;;;28.80;23.70;;;;;;;6.64;100.00;99782.89;102319;1310;62374;-69
2021/11/18 07:34:31;;;;;;;30.30;23.60;;;;;;;6.63;100.00;99787.33;102275;1314;76515;-70
2021/11/18 07:36:58;;;;;;;28.20;22.80;;;;;;;6.56;100.00;99790.74;102332;1310;70805;-69
2021/11/18 07:39:24;;;;;;;27.10;22.40;;;;;;;6.48;100.00;99784.52;102292;1310;73476;-69
2021/11/18 07:41:53;;;;;;;28.50;22.20;;;;;;;6.40;100.00;99789.44;102319;1310;61343;-70
2021/11/18 07:44:20;;;;;;;24.20;20.50;;;;;;;6.34;100.00;99799.52;102417;1317;61317;-70
2021/11/18 07:46:48;;;;;;;28.00;23.60;;;;;;;6.34;100.00;99796.86;102312;1316;75830;-69
2021/11/18 07:49:15;;;;;;;27.00;22.40;;;;;;;6.32;100.00;99799.08;102334;1311;69410;-69
2021/11/18 07:51:44;;;;;;;27.10;21.30;;;;;;;6.30;100.00;99801.79;102288;1310;74007;-69
2021/11/18 07:54:15;;;;;;;25.70;22.10;;;;;;;6.34;100.00;99805.00;102359;1314;61387;-69
2021/11/18 07:56:41;;;;;;;27.60;23.00;;;;;;;6.35;100.00;99806.20;102332;1311;61876;-69
2021/11/18 07:59:09;;;;;;;26.80;21.60;;;;;;;6.36;100.00;99814.63;102327;1311;75470;-69
2021/11/18 08:01:39;;;;;;;27.80;22.10;;;;;;;6.37;99.99;99815.81;102328;1310;70991;-69
2021/11/18 08:04:08;;;;;;;27.50;22.80;;;;;;;6.35;100.00;99819.41;102313;1314;74602;-69
2021/11/18 08:06:36;;;;;;;26.10;21.20;;;;;;;6.31;100.00;99818.52;102399;1310;61421;-69
2021/11/18 08:09:04;;;;;;;28.80;23.80;;;;;;;6.26;100.00;99816.23;102313;1317;62211;-69
2021/11/18 08:11:36;;;;;;;26.00;21.90;;;;;;;6.19;100.00;99817.02;102330;1317;76376;-69
2021/11/18 08:14:05;;;;;;;26.90;22.30;;;;;;;6.09;100.00;99816.48;102301;1310;70303;-69
2021/11/18 08:16:33;;;;;;;26.70;21.50;;;;;;;6.02;100.00;99817.26;102410;1311;73221;-69
2021/11/18 08:19:01;;;;;;;26.20;22.20;;;;;;;5.99;100.00;99823.38;102340;1314;61345;-68
2021/11/18 08:21:27;;;;;;;25.40;21.00;;;;;;;6.01;100.00;99820.48;102340;1317;61266;-69
2021/11/18 08:23:54;;;;;;;24.00;20.60;;;;;;;6.07;100.00;99821.84;102292;1310;76830;-69
2021/11/18 08:26:21;;;;;;;26.90;23.10;;;;;;;6.18;100.00;99818.45;102311;1314;70248;-69
2021/11/18 08:28:48;;;;;;;23.00;20.50;;;;;;;6.31;100.00;99809.34;102343;1317;73470;-69
2021/11/18 08:31:16;;;;;;;28.20;23.00;;;;;;;6.48;100.00;99811.54;101967;1317;61301;-69
2021/11/18 08:33:43;;;;;;;26.60;21.60;;;;;;;6.68;99.88;99814.69;102574;1311;61598;-70
2021/11/18 08:36:10;;;;;;;22.70;20.00;;;;;;;6.94;99.67;99811.73;102323;1311;76043;-69
2021/11/18 08:38:37;;;;;;;24.40;20.80;;;;;;;7.20;99.61;99817.25;102325;1315;69603;-68
2021/11/18 08:41:07;;;;;;;24.80;19.80;;;;;;;7.38;99.54;99822.37;102301;1311;73507;-69
2021/11/18 08:43:37;;;;;;;24.30;20.00;;;;;;;7.39;98.12;99825.33;102363;1317;61655;-69
2021/11/18 08:46:06;;;;;;;22.70;19.20;;;;;;;7.32;98.25;99827.55;102400;1317;61656;-70
2021/11/18 08:48:34;;;;;;;24.00;18.40;;;;;;;7.27;98.15;99831.30;102315;1314;76767;-69
2021/11/18 08:51:02;;;;;;;24.10;19.30;;;;;;;7.15;97.97;99834.24;102485;1316;69619;-68
2021/11/18 08:53:33;;;;;;;24.80;20.10;;;;;;;7.07;98.01;99838.10;102332;1310;74557;-68
2021/11/18 08:56:04;;;;;;;23.00;18.80;;;;;;;7.04;97.91;99836.95;102360;1317;61329;-71
2021/11/18 08:58:34;;;;;;;21.50;18.30;;;;;;;7.10;97.71;99833.91;102361;1316;61257;-68
2021/11/18 09:01:03;;;;;;;;;;;;;;;7.20;97.59;99837.59;102172;1316;76214;-69
2021/11/18 09:03:33;;;;;;;23.50;18.00;;;;;;;7.23;97.12;99840.29;102408;1310;70849;-70
2021/11/18 09:06:04;;;;;;;21.30;17.60;;;;;;;7.18;97.16;99845.59;102485;1310;73500;-70
2021/11/18 09:08:33;;;;;;;22.10;17.50;;;;;;;7.14;97.07;99850.91;102458;1314;61325;-69
2021/11/18 09:11:00;;;;;;;19.00;16.50;;;;;;;7.09;97.07;99846.33;103136;1316;61263;-83
2021/11/18 09:13:27;;;;;;;20.50;16.90;;;;;;;7.04;96.93;99850.04;105671;1316;73461;-81
2021/11/18 09:15:55;;;;;;;21.70;17.10;;;;;;;7.02;96.75;99857.02;104298;1316;67701;-80
2021/11/18 09:18:22;;;;;;;19.10;16.30;;;;;;;7.04;96.71;99861.20;103259;1316;73520;-78
2021/11/18 09:20:51;;;;;;;19.70;17.60;;;;;;;7.13;96.67;99870.90;103442;1316;61504;-77
2021/11/18 09:23:21;;;;;;;20.90;17.20;;;;;;;7.25;96.44;99864.94;103692;1316;61396;-85
2021/11/18 09:25:51;;;;;;;18.90;15.90;;;;;;;7.39;96.27;99864.94;103707;1316;75552;-87
2021/11/18 09:28:20;;;;;;;22.00;18.00;;;;;;;7.52;95.85;99864.95;103699;1316;68920;-85
2021/11/18 09:30:53;;;;;;;21.60;17.50;;;;;;;7.61;95.88;99867.23;102444;1316;72974;-85
2021/11/18 09:33:20;;;;;;;21.60;16.90;;;;;;;7.61;95.48;99868.10;102307;1320;61365;-83
2021/11/18 09:35:51;;;;;;;21.70;17.30;;;;;;;7.57;94.91;99867.76;102566;1316;62263;-81
2021/11/18 09:38:21;;;;;;;22.00;16.50;;;;;;;7.54;94.98;99862.93;102603;1322;75266;-80
2021/11/18 09:40:52;;;;;;;19.60;16.70;;;;;;;7.58;94.75;99863.80;102542;1316;70518;-79
2021/11/18 09:43:34;;;;;;;19.10;15.90;;;;;;;7.64;94.77;99862.87;104711;1316;73594;-82
2021/11/18 09:46:31;;;;;;;18.00;15.20;;;;;;;7.71;94.43;99866.65;104881;1317;60044;-81
2021/11/18 09:49:26;;;;;;;18.50;14.50;;;;;;;7.76;93.74;99863.25;105401;1317;61255;-83
2021/11/18 09:52:32;;;;;;;18.90;13.90;;;;;;;7.81;93.26;99870.12;102977;1316;76471;-80
2021/11/18 09:55:02;;;;;;;16.30;13.20;;;;;;;7.94;93.10;99868.16;102102;1326;70316;-85
2021/11/18 09:57:28;;;;;;;;;;;;;;;8.10;92.70;99864.82;102385;1320;72886;-83
2021/11/18 10:00:10;;;;;;;14.90;13.30;;;;;;;8.25;92.25;99861.68;102329;1325;61332;-82
2021/11/18 10:02:43;;;;;;;17.90;12.90;;;;;;;8.42;91.11;99859.73;102840;1321;61384;-85
2021/11/18 10:05:37;;;;;;;13.50;11.70;;;;;;;8.60;91.50;99863.71;102038;1320;75566;-79
2021/11/18 10:08:17;;;;;;;13.80;11.90;;;;;;;8.75;90.43;99858.98;101017;1327;70523;-80
2021/11/18 10:10:51;;;;;;;20.00;13.10;;;;;;;8.74;90.35;99857.57;100507;1334;72573;-78
2021/11/18 10:14:09;;;;;;;14.70;12.20;;;;;;;8.67;90.55;99852.44;100958;1331;61509;-79
2021/11/18 10:16:45;;;;;;;14.90;12.20;;;;;;;8.61;90.70;99853.24;100351;1333;61602;-79
2021/11/18 10:19:18;;;;;;;16.00;11.90;;;;;;;8.52;90.19;99844.06;100391;1337;74929;-73
2021/11/18 10:21:47;;;;;;;12.80;9.60;;;;;;;8.47;89.92;99843.95;100324;1333;68521;-74
2021/11/18 10:24:18;;;;;;;16.10;10.10;;;;;;;8.43;89.17;99844.48;100194;1339;73972;-73
2021/11/18 10:26:50;;;;;;;13.80;9.90;;;;;;;8.37;89.58;99842.77;100148;1334;61361;-74
2021/11/18 10:29:24;;;;;;;12.80;10.50;;;;;;;8.29;89.80;99845.27;100253;1333;62600;-74
2021/11/18 10:31:55;;;;;;;13.20;9.50;;;;;;;8.24;89.73;99838.73;100280;1325;76325;-74
2021/11/18 10:34:26;;;;;;;11.40;9.00;;;;;;;8.22;89.70;99843.61;100832;1331;69542;-75
2021/11/18 10:37:07;;;;;;;11.70;9.10;;;;;;;8.17;90.05;99851.98;100764;1331;75249;-73
2021/11/18 10:39:37;;;;;;;14.30;9.30;;;;;;;8.11;89.89;99855.77;100736;1330;61439;-74
2021/11/18 10:42:12;;;;;;;13.80;9.70;;;;;;;8.00;90.00;99854.13;100702;1326;62331;-74
2021/11/18 10:44:50;;;;;;;14.50;10.20;;;;;;;7.83;89.99;99858.02;100714;1332;75560;-74
2021/11/18 10:47:20;;;;;;;12.90;8.60;;;;;;;7.67;90.27;99854.75;101645;1320;70537;-74
2021/11/18 10:49:59;;;;;;;16.10;9.70;;;;;;;7.60;90.67;99858.06;101393;1325;72952;-74
2021/11/18 10:52:34;;;;;;;9.50;7.70;;;;;;;7.56;91.08;99850.29;101608;1316;61333;-74
2021/11/18 10:55:27;;;;;;;17.50;8.80;;;;;;;7.51;91.19;99847.48;102291;1317;61415;-74
2021/11/18 10:57:54;;;;;;;14.80;9.30;;;;;;;7.51;91.37;99847.66;102395;1316;75434;-74
2021/11/18 11:00:24;;;;;;;10.30;7.60;;;;;;;7.49;91.55;99842.62;102290;1316;61362;-73
2021/11/18 11:02:52;;;;;;;11.50;7.70;;;;;;;7.47;91.37;99841.08;102283;1310;73758;-73
2021/11/18 11:05:32;;;;;;;12.00;8.30;;;;;;;7.43;91.16;99836.83;102260;1316;61425;-73
2021/11/18 11:08:02;;;;;;;13.00;8.20;;;;;;;7.43;91.48;99832.07;102281;1313;62203;-74
2021/11/18 11:10:41;;;;;;;9.00;7.60;;;;;;;7.45;91.36;99831.45;102328;1311;75461;-73
2021/11/18 11:13:19;;;;;;;10.60;8.20;;;;;;;7.45;91.20;99832.34;102300;1317;69840;-74
2021/11/18 11:16:16;;;;;;;12.30;8.00;;;;;;;7.46;91.61;99830.52;102241;1310;73972;-73
2021/11/18 11:19:03;;;;;;;13.20;8.40;;;;;;;7.52;91.49;99830.48;102262;1310;61358;-74
2021/11/18 11:21:59;;;;;;;11.70;8.70;;;;;;;7.53;91.46;99825.46;102079;1314;62256;-73
2021/11/18 11:24:37;;;;;;;13.60;8.80;;;;;;;7.54;91.56;99821.17;102280;1316;76514;-74